Time;durP1;ratioP1;P1;durP2;ratioP2;P2;SDS_P1;SDS_P2;PMS_P1;PMS_P2;Temp;Humidity;BMP_temperature;BMP_pressure;BME280_temperature;BME280_humidity;BME280_pressure;Samples;Min_cycle;Max_cycle;Signal;HPM_P1;HPM_P2
2022/10/22 00:00:20;;;;;;;10.70;8.50;;;;;;;;;;105538;1285;22849;-27
2022/10/22 00:03:12;;;;;;;10.20;8.10;;;;;;;;;;105524;1296;22481;-27
2022/10/22 00:05:44;;;;;;;10.20;8.30;;;;;;;;;;105625;1294;22475;-27
2022/10/22 00:08:16;;;;;;;9.60;7.90;;;;;;;;;;105710;1294;22456;-27
2022/10/22 00:10:48;;;;;;;10.70;8.40;;;;;;;;;;105720;1295;22519;-27
2022/10/22 00:13:21;;;;;;;10.60;8.20;;;;;;;;;;105722;1286;22583;-27
2022/10/22 00:15:53;;;;;;;10.10;8.30;;;;;;;;;;105548;1294;22483;-27
2022/10/22 00:18:25;;;;;;;10.80;8.20;;;;;;;;;;105568;1288;22479;-27
2022/10/22 00:20:57;;;;;;;10.60;8.00;;;;;;;;;;105549;1295;22702;-27
2022/10/22 00:23:30;;;;;;;9.80;8.40;;;;;;;;;;105547;1289;25225;-27
2022/10/22 00:26:02;;;;;;;9.30;8.00;;;;;;;;;;105633;1295;22472;-27
2022/10/22 00:28:33;;;;;;;10.00;7.90;;;;;;;;;;105706;1295;22460;-27
2022/10/22 00:31:06;;;;;;;10.60;8.10;;;;;;;;;;105707;1289;25356;-27
2022/10/22 00:33:38;;;;;;;9.90;7.60;;;;;;;;;;105723;1294;22605;-27
2022/10/22 00:36:14;;;;;;;9.40;7.60;;;;;;;;;;105572;1295;25248;-27
2022/10/22 00:38:46;;;;;;;9.60;8.20;;;;;;;;;;105569;1283;22474;-27
2022/10/22 00:41:18;;;;;;;10.10;7.80;;;;;;;;;;105539;1288;22555;-27
2022/10/22 00:44:04;;;;;;;10.30;8.00;;;;;;;;;;105538;1296;22499;-27
2022/10/22 00:46:36;;;;;;;10.20;8.00;;;;;;;;;;105643;1294;22484;-27
2022/10/22 00:49:08;;;;;;;10.40;8.10;;;;;;;;;;105677;1275;22485;-27
2022/10/22 00:51:40;;;;;;;9.90;8.00;;;;;;;;;;105689;1289;22484;-27
2022/10/22 00:54:12;;;;;;;10.60;8.50;;;;;;;;;;105668;1294;22486;-27
2022/10/22 00:56:45;;;;;;;9.70;7.70;;;;;;;;;;105554;1286;22464;-27
2022/10/22 00:59:19;;;;;;;9.00;7.70;;;;;;;;;;105580;1297;22555;-27
2022/10/22 01:01:52;;;;;;;9.30;7.90;;;;;;;;;;105537;1296;22645;-27
2022/10/22 01:04:24;;;;;;;9.80;8.10;;;;;;;;;;105540;1298;22543;-27
2022/10/22 01:06:56;;;;;;;9.30;7.70;;;;;;;;;;105627;1294;22487;-27
2022/10/22 01:09:34;;;;;;;11.00;8.10;;;;;;;;;;105735;1295;22489;-27
2022/10/22 01:12:18;;;;;;;9.80;7.70;;;;;;;;;;105719;1286;22458;-27
2022/10/22 01:15:06;;;;;;;9.70;7.90;;;;;;;;;;105726;1288;22486;-27
2022/10/22 01:17:48;;;;;;;9.40;7.80;;;;;;;;;;105629;1275;22478;-27
2022/10/22 01:20:45;;;;;;;9.00;7.90;;;;;;;;;;105496;1292;23914;-27
2022/10/22 01:23:36;;;;;;;9.10;7.50;;;;;;;;;;105491;1283;22459;-27
2022/10/22 01:26:15;;;;;;;9.40;7.60;;;;;;;;;;105492;1288;25247;-27
2022/10/22 01:29:00;;;;;;;9.30;8.00;;;;;;;;;;105726;1292;22475;-27
2022/10/22 01:31:38;;;;;;;9.60;7.90;;;;;;;;;;105728;1285;25210;-27
2022/10/22 01:34:13;;;;;;;10.00;8.10;;;;;;;;;;105759;1294;22555;-27
2022/10/22 01:36:47;;;;;;;10.80;8.10;;;;;;;;;;105646;1289;25207;-27
2022/10/22 01:39:20;;;;;;;9.80;8.20;;;;;;;;;;105570;1289;22464;-27
2022/10/22 01:41:53;;;;;;;;;;;;;;;;;;105582;1292;22439;-27
2022/10/22 01:44:36;;;;;;;8.20;7.20;;;;;;;;;;105568;1301;22465;-27
2022/10/22 01:47:21;;;;;;;9.70;7.80;;;;;;;;;;105581;1294;22475;-27
2022/10/22 01:50:25;;;;;;;9.30;7.50;;;;;;;;;;105724;1280;22484;-27
2022/10/22 01:53:17;;;;;;;9.90;8.00;;;;;;;;;;105694;1299;22523;-27
2022/10/22 01:56:09;;;;;;;8.90;7.40;;;;;;;;;;105720;1279;26693;-27
2022/10/22 01:58:57;;;;;;;9.50;7.60;;;;;;;;;;105623;1289;22489;-27
2022/10/22 02:01:33;;;;;;;9.70;7.50;;;;;;;;;;105536;1296;25278;-27
2022/10/22 02:04:15;;;;;;;10.00;7.60;;;;;;;;;;105534;1289;25503;-27
2022/10/22 02:06:51;;;;;;;8.70;7.50;;;;;;;;;;105482;1292;25217;-27
2022/10/22 02:09:26;;;;;;;10.20;7.50;;;;;;;;;;105727;1294;22461;-27
2022/10/22 02:12:04;;;;;;;9.00;7.60;;;;;;;;;;105729;1280;22468;-27
2022/10/22 02:14:39;;;;;;;9.30;8.10;;;;;;;;;;105734;1289;25251;-27
2022/10/22 02:17:17;;;;;;;9.30;7.60;;;;;;;;;;105655;1285;22485;-27
2022/10/22 02:19:55;;;;;;;9.10;7.70;;;;;;;;;;105567;1288;25354;-27
2022/10/22 02:22:27;;;;;;;9.30;7.80;;;;;;;;;;105562;1298;22526;-27
2022/10/22 02:25:00;;;;;;;9.30;8.00;;;;;;;;;;105577;1289;25252;-27
2022/10/22 02:27:39;;;;;;;9.50;7.40;;;;;;;;;;105553;1285;22461;-27
2022/10/22 02:30:20;;;;;;;9.90;8.10;;;;;;;;;;105733;1297;25226;-27
2022/10/22 02:33:00;;;;;;;9.60;7.80;;;;;;;;;;105735;1298;22475;-27
2022/10/22 02:35:33;;;;;;;10.50;7.80;;;;;;;;;;105702;1292;22730;-27
2022/10/22 02:38:04;;;;;;;;;;;;;;;;;;105645;1288;22446;-27
2022/10/22 02:40:36;;;;;;;9.60;7.90;;;;;;;;;;105567;1298;22478;-27
2022/10/22 02:43:09;;;;;;;8.90;7.30;;;;;;;;;;105524;1282;25197;-27
2022/10/22 02:45:41;;;;;;;9.40;7.60;;;;;;;;;;105551;1289;22684;-27
2022/10/22 02:48:13;;;;;;;9.40;8.30;;;;;;;;;;105588;1286;22990;-27
2022/10/22 02:50:45;;;;;;;9.10;7.70;;;;;;;;;;105742;1294;22518;-27
2022/10/22 02:53:17;;;;;;;9.70;7.70;;;;;;;;;;105737;1294;22493;-27
2022/10/22 02:55:49;;;;;;;9.60;8.00;;;;;;;;;;105699;1294;22510;-27
2022/10/22 02:58:21;;;;;;;9.80;7.90;;;;;;;;;;105646;1282;23887;-27
2022/10/22 03:00:53;;;;;;;9.50;7.70;;;;;;;;;;105593;1301;22496;-27
2022/10/22 03:03:25;;;;;;;8.40;7.40;;;;;;;;;;105570;1289;22501;-27
2022/10/22 03:05:57;;;;;;;9.00;7.20;;;;;;;;;;105565;1295;22477;-27
2022/10/22 03:08:29;;;;;;;9.90;7.60;;;;;;;;;;105578;1296;22479;-27
2022/10/22 03:11:01;;;;;;;9.20;6.90;;;;;;;;;;105735;1295;25313;-27
2022/10/22 03:13:33;;;;;;;8.20;7.10;;;;;;;;;;105725;1294;22486;-27
2022/10/22 03:16:06;;;;;;;9.80;7.80;;;;;;;;;;105717;1289;26048;-27
2022/10/22 03:18:38;;;;;;;9.50;7.60;;;;;;;;;;105682;1296;22713;-27
2022/10/22 03:21:17;;;;;;;8.30;7.00;;;;;;;;;;105553;1298;25228;-27
2022/10/22 03:23:50;;;;;;;9.10;7.50;;;;;;;;;;105538;1295;22475;-27
2022/10/22 03:26:23;;;;;;;8.90;7.40;;;;;;;;;;105559;1294;22483;-27
2022/10/22 03:28:56;;;;;;;8.90;7.40;;;;;;;;;;105555;1286;25471;-27
2022/10/22 03:31:28;;;;;;;9.60;7.20;;;;;;;;;;105697;1279;25490;-27
2022/10/22 03:34:00;;;;;;;8.70;7.00;;;;;;;;;;105710;1294;22552;-27
2022/10/22 03:36:33;;;;;;;8.60;7.60;;;;;;;;;;105727;1289;22507;-27
2022/10/22 03:39:06;;;;;;;8.80;7.10;;;;;;;;;;105638;1295;25815;-27
2022/10/22 03:41:36;;;;;;;;;;;;;;;;;;105546;1298;22461;-27
2022/10/22 03:44:10;;;;;;;9.20;7.40;;;;;;;;;;105548;1289;22462;-27
2022/10/22 03:46:42;;;;;;;9.20;7.60;;;;;;;;;;105525;1283;22551;-27
2022/10/22 03:49:14;;;;;;;8.90;7.20;;;;;;;;;;105542;1289;22554;-27
2022/10/22 03:51:46;;;;;;;8.80;6.80;;;;;;;;;;105721;1294;22743;-27
2022/10/22 03:54:19;;;;;;;9.10;7.30;;;;;;;;;;105722;1292;22537;-27
2022/10/22 03:56:51;;;;;;;9.10;7.60;;;;;;;;;;105717;1286;22466;-27
2022/10/22 03:59:24;;;;;;;8.40;7.30;;;;;;;;;;105646;1287;25287;-27
2022/10/22 04:01:56;;;;;;;9.50;7.10;;;;;;;;;;105532;1286;22756;-27
2022/10/22 04:04:28;;;;;;;8.70;7.30;;;;;;;;;;105543;1290;22456;-27
2022/10/22 04:07:00;;;;;;;8.70;7.50;;;;;;;;;;105548;1289;22465;-27
2022/10/22 04:09:34;;;;;;;8.20;7.30;;;;;;;;;;105533;1297;22530;-27
2022/10/22 04:12:08;;;;;;;8.10;7.00;;;;;;;;;;105742;1287;22469;-27
2022/10/22 04:14:40;;;;;;;9.60;7.50;;;;;;;;;;105754;1292;25274;-27
2022/10/22 04:17:12;;;;;;;8.60;7.40;;;;;;;;;;105717;1286;22472;-27
2022/10/22 04:19:44;;;;;;;9.30;6.90;;;;;;;;;;105658;1286;26099;-27
2022/10/22 04:22:16;;;;;;;9.10;7.40;;;;;;;;;;105542;1288;25583;-27
2022/10/22 04:24:48;;;;;;;8.20;6.70;;;;;;;;;;105564;1287;25322;-27
2022/10/22 04:27:20;;;;;;;8.00;6.60;;;;;;;;;;105588;1290;25573;-27
2022/10/22 04:29:53;;;;;;;8.80;7.00;;;;;;;;;;105570;1294;22469;-27
2022/10/22 04:32:27;;;;;;;8.50;7.10;;;;;;;;;;105706;1287;22509;-27
2022/10/22 04:34:58;;;;;;;;;;;;;;;;;;105549;1289;22468;-27
2022/10/22 04:37:31;;;;;;;9.40;7.10;;;;;;;;;;105718;1295;22527;-27
2022/10/22 04:40:06;;;;;;;8.40;6.90;;;;;;;;;;105677;1295;22472;-27
2022/10/22 04:42:38;;;;;;;8.30;6.80;;;;;;;;;;105570;1290;22476;-27
2022/10/22 04:45:12;;;;;;;8.00;6.90;;;;;;;;;;105574;1298;22467;-27
2022/10/22 04:47:44;;;;;;;8.10;6.80;;;;;;;;;;105551;1289;22756;-27
2022/10/22 04:50:16;;;;;;;8.20;7.00;;;;;;;;;;105517;1297;22734;-27
2022/10/22 04:52:48;;;;;;;7.80;7.00;;;;;;;;;;105732;1294;22636;-27
2022/10/22 04:55:21;;;;;;;8.50;7.10;;;;;;;;;;105745;1295;22756;-27
2022/10/22 04:57:53;;;;;;;8.50;7.00;;;;;;;;;;105739;1291;22485;-27
2022/10/22 05:00:25;;;;;;;8.00;6.40;;;;;;;;;;105461;1299;22472;-27
2022/10/22 05:02:57;;;;;;;8.00;6.70;;;;;;;;;;105485;1288;25863;-27
2022/10/22 05:05:29;;;;;;;9.80;7.00;;;;;;;;;;105504;1304;22486;-27
2022/10/22 05:08:01;;;;;;;7.40;6.50;;;;;;;;;;105518;1296;22519;-27
2022/10/22 05:10:33;;;;;;;7.80;6.50;;;;;;;;;;105514;1301;23995;-27
2022/10/22 05:13:05;;;;;;;7.60;6.60;;;;;;;;;;105731;1294;22470;-27
2022/10/22 05:15:37;;;;;;;7.70;6.40;;;;;;;;;;105744;1286;25082;-27
2022/10/22 05:18:09;;;;;;;7.70;6.30;;;;;;;;;;105711;1285;22527;-27
2022/10/22 05:20:43;;;;;;;7.90;6.50;;;;;;;;;;105688;1296;22475;-27
2022/10/22 05:23:15;;;;;;;7.70;6.50;;;;;;;;;;105538;1298;22484;-26
2022/10/22 05:25:47;;;;;;;7.50;6.70;;;;;;;;;;105581;1294;23845;-26
2022/10/22 05:28:20;;;;;;;7.60;6.30;;;;;;;;;;105576;1297;22795;-26
2022/10/22 05:30:58;;;;;;;8.00;6.30;;;;;;;;;;105528;1289;22668;-26
2022/10/22 05:33:32;;;;;;;8.10;6.60;;;;;;;;;;105718;1286;22477;-26
2022/10/22 05:36:09;;;;;;;7.90;6.70;;;;;;;;;;105735;1292;22474;-26
2022/10/22 05:38:44;;;;;;;8.40;6.50;;;;;;;;;;105759;1286;22475;-26
2022/10/22 05:41:19;;;;;;;7.60;6.40;;;;;;;;;;105656;1293;22834;-26
2022/10/22 05:43:51;;;;;;;7.80;6.40;;;;;;;;;;105562;1299;22783;-26
2022/10/22 05:46:26;;;;;;;7.90;6.60;;;;;;;;;;105547;1272;22468;-26
2022/10/22 05:49:01;;;;;;;6.90;5.80;;;;;;;;;;105553;1295;22482;-26
2022/10/22 05:51:36;;;;;;;8.10;6.80;;;;;;;;;;105520;1285;22931;-26
2022/10/22 05:54:11;;;;;;;7.50;6.40;;;;;;;;;;105701;1289;22625;-26
2022/10/22 05:56:43;;;;;;;7.20;6.10;;;;;;;;;;105707;1296;22476;-27
2022/10/22 05:59:15;;;;;;;7.10;6.20;;;;;;;;;;105741;1290;22933;-27
2022/10/22 06:01:48;;;;;;;7.30;6.20;;;;;;;;;;105666;1281;25244;-27
2022/10/22 06:04:20;;;;;;;7.10;5.60;;;;;;;;;;105568;1297;22456;-27
2022/10/22 06:06:54;;;;;;;6.70;5.80;;;;;;;;;;105591;1300;22530;-27
2022/10/22 06:09:29;;;;;;;7.00;6.10;;;;;;;;;;105565;1288;22622;-27
2022/10/22 06:12:02;;;;;;;7.60;6.00;;;;;;;;;;105576;1288;22615;-27
2022/10/22 06:14:34;;;;;;;7.90;6.60;;;;;;;;;;105727;1292;22518;-27
2022/10/22 06:17:06;;;;;;;7.10;5.70;;;;;;;;;;105711;1294;22471;-27
2022/10/22 06:19:38;;;;;;;6.90;5.60;;;;;;;;;;105723;1295;22474;-27
2022/10/22 06:22:10;;;;;;;7.50;6.10;;;;;;;;;;105645;1290;22481;-27
2022/10/22 06:24:43;;;;;;;7.30;5.90;;;;;;;;;;105551;1296;23849;-27
2022/10/22 06:27:15;;;;;;;7.80;5.50;;;;;;;;;;105553;1281;22469;-27
2022/10/22 06:29:47;;;;;;;7.60;6.10;;;;;;;;;;105530;1295;22595;-27
2022/10/22 06:32:19;;;;;;;7.60;5.60;;;;;;;;;;105525;1296;22702;-27
2022/10/22 06:34:51;;;;;;;6.60;5.60;;;;;;;;;;105731;1288;22482;-27
2022/10/22 06:37:23;;;;;;;7.80;6.30;;;;;;;;;;105736;1294;22475;-27
2022/10/22 06:39:55;;;;;;;6.70;5.60;;;;;;;;;;105480;1286;323828;-27
2022/10/22 06:42:28;;;;;;;7.60;6.10;;;;;;;;;;105650;1287;25233;-27
2022/10/22 06:45:00;;;;;;;7.00;5.70;;;;;;;;;;105531;1297;22624;-27
2022/10/22 06:47:33;;;;;;;7.90;5.90;;;;;;;;;;105526;1297;22467;-27
2022/10/22 06:50:07;;;;;;;7.00;5.80;;;;;;;;;;105542;1282;25391;-27
2022/10/22 06:52:40;;;;;;;7.30;5.80;;;;;;;;;;105533;1295;25353;-27
2022/10/22 06:55:13;;;;;;;7.00;5.80;;;;;;;;;;105694;1295;25228;-27
2022/10/22 06:57:45;;;;;;;7.60;5.90;;;;;;;;;;105700;1289;22475;-27
2022/10/22 07:00:19;;;;;;;7.90;5.60;;;;;;;;;;105733;1284;22466;-27
2022/10/22 07:02:54;;;;;;;8.00;6.10;;;;;;;;;;105670;1294;22621;-27
2022/10/22 07:05:26;;;;;;;8.50;6.20;;;;;;;;;;105520;1295;25576;-27
2022/10/22 07:07:59;;;;;;;7.80;5.80;;;;;;;;;;105530;1298;22428;-27
2022/10/22 07:10:31;;;;;;;7.70;5.50;;;;;;;;;;105534;1298;22926;-27
2022/10/22 07:13:03;;;;;;;9.00;5.90;;;;;;;;;;105523;1295;22786;-27
2022/10/22 07:15:35;;;;;;;8.50;6.40;;;;;;;;;;105712;1295;26424;-26
2022/10/22 07:18:07;;;;;;;7.80;6.20;;;;;;;;;;105711;1295;24947;-26
2022/10/22 07:20:39;;;;;;;8.40;6.10;;;;;;;;;;105713;1286;23478;-26
2022/10/22 07:23:11;;;;;;;8.00;6.10;;;;;;;;;;105667;1292;22701;-27
2022/10/22 07:25:43;;;;;;;9.60;6.40;;;;;;;;;;105521;1293;22474;-27
2022/10/22 07:28:15;;;;;;;8.30;6.10;;;;;;;;;;105518;1298;25264;-26
2022/10/22 07:30:49;;;;;;;7.70;6.10;;;;;;;;;;105517;1295;25378;-26
2022/10/22 07:33:19;;;;;;;;;;;;;;;;;;105536;1294;22458;-26
2022/10/22 07:35:51;;;;;;;8.60;6.10;;;;;;;;;;105727;1296;24200;-26
2022/10/22 07:38:23;;;;;;;7.90;6.20;;;;;;;;;;105682;1295;22533;-26
2022/10/22 07:40:56;;;;;;;10.40;6.40;;;;;;;;;;105714;1300;22489;-26
2022/10/22 07:43:28;;;;;;;7.30;5.70;;;;;;;;;;105681;1285;22479;-26
2022/10/22 07:46:01;;;;;;;10.50;6.60;;;;;;;;;;105559;1300;22504;-26
2022/10/22 07:48:33;;;;;;;8.60;6.70;;;;;;;;;;105560;1296;22672;-27
2022/10/22 07:51:06;;;;;;;8.80;6.40;;;;;;;;;;105578;1301;22465;-27
2022/10/22 07:53:41;;;;;;;8.70;6.60;;;;;;;;;;105538;1297;22487;-27
2022/10/22 07:56:13;;;;;;;8.70;6.40;;;;;;;;;;105709;1287;22569;-27
2022/10/22 07:58:45;;;;;;;9.00;6.70;;;;;;;;;;105716;1295;22496;-27
2022/10/22 08:01:17;;;;;;;9.60;7.00;;;;;;;;;;105723;1296;22647;-27
2022/10/22 08:03:50;;;;;;;8.70;6.30;;;;;;;;;;105661;1286;22476;-27
2022/10/22 08:06:22;;;;;;;9.70;6.80;;;;;;;;;;105568;1300;22626;-27
2022/10/22 08:08:54;;;;;;;11.20;7.20;;;;;;;;;;105519;1282;25226;-27
2022/10/22 08:11:26;;;;;;;8.20;6.70;;;;;;;;;;105531;1293;22468;-27
2022/10/22 08:13:58;;;;;;;9.60;6.80;;;;;;;;;;105509;1294;25434;-27
2022/10/22 08:16:30;;;;;;;9.50;6.60;;;;;;;;;;105690;1289;22483;-27
2022/10/22 08:19:02;;;;;;;9.60;7.10;;;;;;;;;;105769;1296;22639;-26
2022/10/22 08:21:34;;;;;;;7.90;6.70;;;;;;;;;;105767;1295;22769;-26
2022/10/22 08:24:08;;;;;;;8.40;7.00;;;;;;;;;;105663;1283;25578;-27
2022/10/22 08:26:40;;;;;;;8.80;6.90;;;;;;;;;;105541;1297;22479;-27
2022/10/22 08:29:12;;;;;;;9.40;7.10;;;;;;;;;;105538;1294;22452;-27
2022/10/22 08:31:45;;;;;;;8.70;7.20;;;;;;;;;;105545;1290;23997;-27
2022/10/22 08:34:17;;;;;;;8.50;6.80;;;;;;;;;;105516;1289;22454;-27
2022/10/22 08:36:49;;;;;;;10.20;7.20;;;;;;;;;;105720;1301;22495;-27
2022/10/22 08:39:21;;;;;;;8.70;7.20;;;;;;;;;;105710;1299;22489;-27
2022/10/22 08:42:03;;;;;;;10.30;7.50;;;;;;;;;;105721;1285;22477;-27
2022/10/22 08:45:06;;;;;;;8.80;7.10;;;;;;;;;;105668;1286;22546;-27
2022/10/22 08:47:57;;;;;;;9.50;7.10;;;;;;;;;;105509;1300;25260;-27
2022/10/22 08:50:35;;;;;;;9.40;6.80;;;;;;;;;;105553;1286;25462;-27
2022/10/22 08:53:15;;;;;;;8.70;6.80;;;;;;;;;;105525;1289;22477;-27
2022/10/22 08:55:48;;;;;;;9.60;7.20;;;;;;;;;;105538;1285;22553;-27
2022/10/22 08:58:32;;;;;;;9.70;7.30;;;;;;;;;;105721;1302;22475;-27
2022/10/22 09:01:11;;;;;;;9.00;7.30;;;;;;;;;;105722;1296;22458;-27
2022/10/22 09:03:52;;;;;;;9.90;6.90;;;;;;;;;;105784;1300;22543;-27
2022/10/22 09:06:28;;;;;;;8.00;6.90;;;;;;;;;;105628;1295;22570;-27
2022/10/22 09:09:05;;;;;;;8.40;7.00;;;;;;;;;;105531;1301;25403;-27
2022/10/22 09:11:42;;;;;;;9.30;6.90;;;;;;;;;;105552;1301;22462;-27
2022/10/22 09:14:17;;;;;;;8.60;6.50;;;;;;;;;;105536;1296;22462;-27
2022/10/22 09:17:10;;;;;;;8.50;6.50;;;;;;;;;;105663;1297;22534;-27
2022/10/22 09:19:58;;;;;;;8.70;6.70;;;;;;;;;;105727;1297;22468;-27
2022/10/22 09:22:43;;;;;;;8.60;6.80;;;;;;;;;;105686;1290;22518;-27
2022/10/22 09:25:23;;;;;;;8.90;6.70;;;;;;;;;;105680;1281;22468;-27
2022/10/22 09:27:58;;;;;;;8.50;6.60;;;;;;;;;;105520;1288;23997;-27
2022/10/22 09:30:33;;;;;;;8.60;7.00;;;;;;;;;;105545;1296;22490;-27
2022/10/22 09:33:17;;;;;;;8.40;6.50;;;;;;;;;;105538;1294;22484;-27
2022/10/22 09:35:56;;;;;;;11.80;9.10;;;;;;;;;;105546;1292;22471;-27
2022/10/22 09:38:32;;;;;;;11.10;8.70;;;;;;;;;;105628;1295;22489;-27
2022/10/22 09:41:05;;;;;;;10.30;8.80;;;;;;;;;;105694;1290;23873;-27
2022/10/22 09:43:40;;;;;;;11.10;9.70;;;;;;;;;;105728;1301;23824;-27
2022/10/22 09:46:19;;;;;;;11.40;8.80;;;;;;;;;;105723;1295;22552;-27
2022/10/22 09:48:58;;;;;;;10.30;8.60;;;;;;;;;;105444;1279;22463;-26
2022/10/22 09:51:46;;;;;;;12.10;9.60;;;;;;;;;;105498;1301;22509;-26
2022/10/22 09:54:24;;;;;;;11.00;9.50;;;;;;;;;;105502;1295;23971;-26
2022/10/22 09:57:11;;;;;;;13.10;9.70;;;;;;;;;;105483;1289;23811;-26
2022/10/22 09:59:47;;;;;;;12.00;10.00;;;;;;;;;;105702;1294;22729;-26
2022/10/22 10:02:24;;;;;;;12.30;9.70;;;;;;;;;;105723;1301;22465;-25
2022/10/22 10:04:58;;;;;;;12.70;11.00;;;;;;;;;;105708;1295;22469;-26
2022/10/22 10:07:34;;;;;;;14.60;12.80;;;;;;;;;;105656;1295;22487;-26
2022/10/22 10:10:19;;;;;;;14.70;13.20;;;;;;;;;;105567;1286;22493;-26
2022/10/22 10:13:01;;;;;;;15.90;13.60;;;;;;;;;;105500;1304;22465;-26
2022/10/22 10:15:43;;;;;;;16.30;12.90;;;;;;;;;;105531;1287;22467;-26
2022/10/22 10:18:29;;;;;;;15.10;12.80;;;;;;;;;;105565;1291;25261;-26
2022/10/22 10:21:14;;;;;;;15.00;13.40;;;;;;;;;;105709;1290;22475;-26
2022/10/22 10:23:58;;;;;;;15.40;13.80;;;;;;;;;;105691;1301;22652;-26
2022/10/22 10:26:39;;;;;;;15.00;13.50;;;;;;;;;;105723;1296;22472;-26
2022/10/22 10:29:31;;;;;;;16.20;14.10;;;;;;;;;;105548;1294;22515;-27
2022/10/22 10:32:31;;;;;;;16.20;14.50;;;;;;;;;;105516;1289;23974;-26
2022/10/22 10:35:18;;;;;;;15.60;13.80;;;;;;;;;;105530;1279;25400;-26
2022/10/22 10:38:03;;;;;;;16.40;14.40;;;;;;;;;;105543;1294;22485;-26
2022/10/22 10:40:43;;;;;;;17.00;15.10;;;;;;;;;;105507;1302;25214;-26
2022/10/22 10:43:25;;;;;;;15.70;14.00;;;;;;;;;;105715;1279;22458;-26
2022/10/22 10:46:08;;;;;;;16.00;14.20;;;;;;;;;;105710;1297;25210;-25
2022/10/22 10:48:51;;;;;;;16.10;14.40;;;;;;;;;;105579;1281;22494;-26
2022/10/22 10:51:43;;;;;;;16.20;14.50;;;;;;;;;;105560;1280;22502;-25
2022/10/22 10:54:28;;;;;;;16.10;14.40;;;;;;;;;;105622;1285;22536;-26
2022/10/22 10:57:06;;;;;;;15.80;13.90;;;;;;;;;;105660;1294;22481;-26
2022/10/22 11:00:06;;;;;;;16.20;14.40;;;;;;;;;;105681;1294;22500;-26
2022/10/22 11:03:37;;;;;;;14.60;12.30;;;;;;;;;;105656;1297;22472;-26
2022/10/22 11:06:14;;;;;;;14.70;13.10;;;;;;;;;;105481;1302;22465;-26
2022/10/22 11:08:54;;;;;;;15.90;13.20;;;;;;;;;;105664;1292;22577;-26
2022/10/22 11:11:34;;;;;;;14.60;12.60;;;;;;;;;;105541;1294;22486;-26
2022/10/22 11:14:17;;;;;;;14.20;12.70;;;;;;;;;;105538;1289;22482;-26
2022/10/22 11:17:00;;;;;;;15.20;13.60;;;;;;;;;;105567;1289;25319;-26
2022/10/22 11:19:38;;;;;;;13.80;12.40;;;;;;;;;;105593;1280;24211;-26
2022/10/22 11:22:17;;;;;;;14.20;12.70;;;;;;;;;;105692;1294;25358;-26
2022/10/22 11:24:57;;;;;;;14.10;12.60;;;;;;;;;;105688;1295;22502;-26
2022/10/22 11:27:36;;;;;;;13.80;12.40;;;;;;;;;;105679;1289;23846;-26
2022/10/22 11:30:19;;;;;;;14.00;12.50;;;;;;;;;;105543;1295;22485;-26
2022/10/22 11:32:54;;;;;;;14.20;12.80;;;;;;;;;;105541;1295;25175;-26
2022/10/22 11:35:28;;;;;;;13.40;12.10;;;;;;;;;;105689;1283;22747;-26
2022/10/22 11:38:01;;;;;;;13.70;12.30;;;;;;;;;;105684;1291;22488;-26
2022/10/22 11:40:38;;;;;;;13.90;12.20;;;;;;;;;;105536;1289;24329;-27
2022/10/22 11:43:25;;;;;;;13.30;11.90;;;;;;;;;;105462;1294;22485;-27
2022/10/22 11:46:25;;;;;;;13.60;12.10;;;;;;;;;;105450;1301;22524;-27
2022/10/22 11:49:22;;;;;;;14.10;12.30;;;;;;;;;;105497;1290;22491;-27
2022/10/22 11:52:22;;;;;;;14.40;12.80;;;;;;;;;;105470;1302;22640;-27
2022/10/22 11:55:01;;;;;;;13.50;11.90;;;;;;;;;;105522;1280;25212;-27
2022/10/22 11:57:40;;;;;;;14.20;12.30;;;;;;;;;;105513;1285;22499;-27
2022/10/22 12:00:46;;;;;;;12.70;11.40;;;;;;;;;;105449;1295;22466;-27
2022/10/22 12:03:39;;;;;;;13.20;11.80;;;;;;;;;;105451;1297;22936;-27
2022/10/22 12:06:24;;;;;;;13.40;11.90;;;;;;;;;;105461;1298;22515;-27
2022/10/22 12:09:06;;;;;;;13.50;11.70;;;;;;;;;;105485;1281;23633;-26
2022/10/22 12:11:46;;;;;;;13.20;11.80;;;;;;;;;;105489;1301;22487;-26
2022/10/22 12:14:25;;;;;;;13.10;11.30;;;;;;;;;;105544;1280;25338;-26
2022/10/22 12:17:07;;;;;;;13.20;11.80;;;;;;;;;;105543;1295;25201;-26
2022/10/22 12:19:43;;;;;;;13.30;11.80;;;;;;;;;;105519;1295;23939;-27
2022/10/22 12:22:23;;;;;;;13.40;11.80;;;;;;;;;;105445;1304;22462;-27
2022/10/22 12:25:00;;;;;;;14.00;12.00;;;;;;;;;;105464;1291;22515;-26
2022/10/22 12:27:38;;;;;;;14.10;12.30;;;;;;;;;;105487;1296;22488;-26
2022/10/22 12:30:22;;;;;;;14.70;13.20;;;;;;;;;;105470;1295;22686;-26
2022/10/22 12:32:59;;;;;;;14.70;12.70;;;;;;;;;;105534;1289;22478;-26
2022/10/22 12:35:34;;;;;;;16.10;13.80;;;;;;;;;;105576;1290;25342;-26
2022/10/22 12:38:16;;;;;;;15.50;13.70;;;;;;;;;;105572;1301;22706;-25
2022/10/22 12:40:49;;;;;;;16.60;14.40;;;;;;;;;;105514;1289;22477;-26
2022/10/22 12:43:26;;;;;;;16.80;14.70;;;;;;;;;;105694;1281;22480;-26
2022/10/22 12:46:00;;;;;;;18.30;14.40;;;;;;;;;;105694;1279;25486;-26
2022/10/22 12:48:36;;;;;;;17.20;14.30;;;;;;;;;;105707;1296;22514;-26
2022/10/22 12:51:11;;;;;;;18.90;15.50;;;;;;;;;;105646;1283;22476;-26
2022/10/22 12:53:48;;;;;;;18.00;14.70;;;;;;;;;;105549;1288;22475;-26
2022/10/22 12:56:29;;;;;;;19.60;15.60;;;;;;;;;;105556;1289;22648;-26
2022/10/22 12:59:05;;;;;;;18.00;15.30;;;;;;;;;;105517;1288;22481;-26
2022/10/22 13:01:42;;;;;;;17.00;14.30;;;;;;;;;;105519;1282;22462;-26
2022/10/22 13:04:35;;;;;;;16.30;13.90;;;;;;;;;;105672;1295;22458;-26
2022/10/22 13:07:16;;;;;;;;;;;;;;;;;;105722;1295;22476;-26
2022/10/22 13:09:59;;;;;;;15.80;14.00;;;;;;;;;;105714;1295;26541;-26
2022/10/22 13:12:37;;;;;;;16.00;14.30;;;;;;;;;;105552;1296;22466;-26
2022/10/22 13:15:40;;;;;;;17.40;13.80;;;;;;;;;;105520;1281;25307;-26
2022/10/22 13:18:25;;;;;;;15.60;13.90;;;;;;;;;;105515;1282;22687;-26
2022/10/22 13:21:04;;;;;;;15.40;13.20;;;;;;;;;;105533;1283;25282;-26
2022/10/22 13:23:37;;;;;;;15.60;13.70;;;;;;;;;;105664;1292;24028;-26
2022/10/22 13:26:17;;;;;;;17.50;14.10;;;;;;;;;;105723;1295;22479;-26
2022/10/22 13:28:55;;;;;;;15.80;13.80;;;;;;;;;;105719;1293;22620;-26
2022/10/22 13:31:32;;;;;;;15.90;13.10;;;;;;;;;;105719;1288;22475;-26
2022/10/22 13:34:08;;;;;;;15.00;13.20;;;;;;;;;;105623;1301;22651;-26
2022/10/22 13:36:40;;;;;;;15.70;13.80;;;;;;;;;;105567;1295;22484;-26
2022/10/22 13:39:18;;;;;;;15.10;13.30;;;;;;;;;;105507;1299;22518;-26
2022/10/22 13:41:51;;;;;;;14.30;12.70;;;;;;;;;;105509;1301;22473;-26
2022/10/22 13:44:24;;;;;;;14.90;12.90;;;;;;;;;;105659;1289;25264;-26
2022/10/22 13:46:59;;;;;;;14.20;12.60;;;;;;;;;;105712;1284;22498;-26
2022/10/22 13:49:31;;;;;;;15.30;12.70;;;;;;;;;;105686;1295;22471;-26
2022/10/22 13:52:03;;;;;;;12.90;11.30;;;;;;;;;;105725;1288;24578;-26
2022/10/22 13:54:36;;;;;;;15.00;12.60;;;;;;;;;;105478;1301;22455;-26
2022/10/22 13:57:11;;;;;;;14.60;12.50;;;;;;;;;;105542;1298;22500;-26
2022/10/22 13:59:43;;;;;;;13.80;12.10;;;;;;;;;;105541;1289;25310;-26
2022/10/22 14:02:18;;;;;;;12.90;11.50;;;;;;;;;;105506;1289;22562;-26
2022/10/22 14:04:50;;;;;;;12.60;11.10;;;;;;;;;;105692;1294;22488;-26
2022/10/22 14:07:23;;;;;;;12.60;11.10;;;;;;;;;;105708;1289;25494;-26
2022/10/22 14:09:56;;;;;;;12.80;10.70;;;;;;;;;;105703;1286;22663;-26
2022/10/22 14:12:29;;;;;;;13.30;11.70;;;;;;;;;;105704;1292;22484;-26
2022/10/22 14:15:02;;;;;;;13.00;11.50;;;;;;;;;;105508;1300;22684;-26
2022/10/22 14:17:35;;;;;;;13.10;11.00;;;;;;;;;;105510;1288;22572;-26
2022/10/22 14:20:09;;;;;;;14.80;11.80;;;;;;;;;;105534;1282;22494;-26
2022/10/22 14:22:43;;;;;;;12.70;10.80;;;;;;;;;;105528;1289;23821;-26
2022/10/22 14:25:20;;;;;;;13.10;11.30;;;;;;;;;;105702;1301;25296;-26
2022/10/22 14:27:55;;;;;;;11.90;10.50;;;;;;;;;;105725;1286;22491;-26
2022/10/22 14:30:29;;;;;;;13.10;11.00;;;;;;;;;;105718;1289;23962;-26
2022/10/22 14:33:01;;;;;;;11.90;10.70;;;;;;;;;;105727;1289;22549;-26
2022/10/22 14:35:33;;;;;;;11.80;10.50;;;;;;;;;;105637;1298;22464;-26
2022/10/22 14:38:05;;;;;;;11.60;10.40;;;;;;;;;;105357;1289;232963;-26
2022/10/22 14:40:40;;;;;;;12.20;10.70;;;;;;;;;;105549;1294;22717;-26
2022/10/22 14:43:19;;;;;;;12.10;10.70;;;;;;;;;;105486;1289;22516;-26
2022/10/22 14:45:52;;;;;;;12.80;10.70;;;;;;;;;;105716;1289;22444;-26
2022/10/22 14:48:22;;;;;;;;;;;;;;;;;;105698;1287;25216;-26
2022/10/22 14:50:58;;;;;;;13.30;10.80;;;;;;;;;;105689;1294;22580;-26
2022/10/22 14:53:31;;;;;;;12.60;9.80;;;;;;;;;;105703;1289;22554;-26
2022/10/22 14:56:04;;;;;;;11.90;10.50;;;;;;;;;;105494;1297;21765;-26
2022/10/22 14:58:36;;;;;;;13.70;10.50;;;;;;;;;;105542;1294;22481;-26
2022/10/22 15:01:11;;;;;;;12.80;11.00;;;;;;;;;;105562;1302;22576;-26
2022/10/22 15:03:44;;;;;;;13.30;10.50;;;;;;;;;;105546;1289;22455;-26
2022/10/22 15:06:16;;;;;;;13.40;10.30;;;;;;;;;;105707;1285;22869;-26
2022/10/22 15:08:49;;;;;;;13.30;10.80;;;;;;;;;;105723;1286;23164;-26
2022/10/22 15:11:21;;;;;;;11.50;10.20;;;;;;;;;;105757;1288;22529;-26
2022/10/22 15:13:54;;;;;;;12.50;10.40;;;;;;;;;;105734;1296;22511;-26